createdAt,value
2019-03-18T00:00:16.062Z,12.60
2019-03-18T00:02:44.611Z,12.40
2019-03-18T00:05:12.947Z,12.60
2019-03-18T00:07:41.335Z,12.93
2019-03-18T00:10:10.042Z,12.10
2019-03-18T00:12:38.536Z,13.63
2019-03-18T00:15:10.507Z,12.60
2019-03-18T00:17:38.908Z,14.60
2019-03-18T00:20:09.057Z,13.30
2019-03-18T00:22:37.472Z,13.43
2019-03-18T00:25:10.967Z,14.27
2019-03-18T00:27:39.438Z,13.43
2019-03-18T00:30:20.775Z,13.80
2019-03-18T00:32:49.185Z,13.67
2019-03-18T00:35:17.996Z,14.10
2019-03-18T00:37:46.454Z,14.13
2019-03-18T00:40:19.295Z,14.57
2019-03-18T00:42:47.763Z,13.23
2019-03-18T00:45:16.802Z,13.70
2019-03-18T00:47:45.432Z,13.80
2019-03-18T00:50:17.003Z,14.27
2019-03-18T00:52:45.572Z,15.60
2019-03-18T00:55:14.050Z,14.63
2019-03-18T00:57:42.722Z,14.60
2019-03-18T01:00:17.449Z,14.53
2019-03-18T01:02:45.842Z,16.67
2019-03-18T01:05:14.598Z,13.97
2019-03-18T01:07:43.012Z,15.37
2019-03-18T01:10:16.903Z,14.93
2019-03-18T01:12:45.306Z,13.60
2019-03-18T01:15:26.895Z,14.77
2019-03-18T01:17:45.425Z,13.50
2019-03-18T01:20:15.095Z,14.87
2019-03-18T01:22:43.483Z,16.70
2019-03-18T01:25:12.405Z,14.40
2019-03-18T01:27:42.634Z,15.00
2019-03-18T01:30:12.842Z,16.27
2019-03-18T01:32:41.301Z,14.37
2019-03-18T01:35:10.751Z,15.43
2019-03-18T01:37:39.519Z,14.13
2019-03-18T01:40:13.065Z,14.47
2019-03-18T01:42:41.461Z,17.07
2019-03-18T01:45:11.198Z,14.87
2019-03-18T01:47:39.894Z,15.23
2019-03-18T01:50:15.343Z,14.97
2019-03-18T01:52:43.866Z,14.50
2019-03-18T01:55:12.313Z,16.43
2019-03-18T01:57:40.699Z,14.77
2019-03-18T02:00:11.625Z,15.60
2019-03-18T02:02:40.045Z,14.90
2019-03-18T02:05:09.963Z,15.37
2019-03-18T02:07:38.355Z,15.00
2019-03-18T02:10:14.731Z,14.70
2019-03-18T02:12:43.196Z,13.87
2019-03-18T02:15:15.928Z,14.80
2019-03-18T02:17:44.545Z,14.47
2019-03-18T02:20:14.600Z,15.33
2019-03-18T02:22:43.419Z,13.13
2019-03-18T02:25:12.353Z,14.17
2019-03-18T02:27:40.729Z,14.50
2019-03-18T02:30:17.060Z,14.50
2019-03-18T02:32:45.441Z,13.47
2019-03-18T02:35:13.915Z,14.97
2019-03-18T02:37:42.307Z,13.87
2019-03-18T02:40:11.636Z,13.90
2019-03-18T02:42:40.296Z,14.70
2019-03-18T02:45:12.966Z,14.00
2019-03-18T02:47:41.479Z,14.83
2019-03-18T02:50:11.359Z,13.63
2019-03-18T02:52:40.144Z,13.50
2019-03-18T02:55:09.365Z,12.80
2019-03-18T02:57:37.770Z,13.10
2019-03-18T03:00:12.017Z,14.50
2019-03-18T03:02:40.451Z,13.50
2019-03-18T03:05:10.778Z,13.20
2019-03-18T03:07:39.173Z,12.87
2019-03-18T03:10:10.299Z,13.20
2019-03-18T03:12:38.755Z,12.60
2019-03-18T03:15:09.557Z,13.17
2019-03-18T03:17:37.963Z,12.67
2019-03-18T03:20:08.583Z,14.33
2019-03-18T03:22:36.975Z,12.70
2019-03-18T03:25:07.116Z,12.27
2019-03-18T03:27:35.567Z,12.20
2019-03-18T03:30:05.806Z,12.50
2019-03-18T03:32:34.481Z,12.23
2019-03-18T03:35:03.088Z,12.97
2019-03-18T03:37:31.572Z,12.27
2019-03-18T03:40:00.047Z,12.30
2019-03-18T03:42:28.548Z,13.20
2019-03-18T03:44:57.030Z,13.70
2019-03-18T03:47:25.517Z,13.50
2019-03-18T03:49:54.462Z,12.27
2019-03-18T03:52:23.098Z,14.10
2019-03-18T03:54:51.556Z,13.07
2019-03-18T03:57:20.329Z,12.73
2019-03-18T03:59:48.778Z,13.03
2019-03-18T04:02:17.176Z,13.73
2019-03-18T04:04:45.654Z,13.70
2019-03-18T04:07:14.787Z,16.23
2019-03-18T04:09:43.233Z,13.83
2019-03-18T04:12:11.607Z,13.23
2019-03-18T04:14:40.006Z,13.30
2019-03-18T04:17:08.392Z,14.37
2019-03-18T04:19:36.900Z,14.70
2019-03-18T04:22:05.547Z,14.40
2019-03-18T04:24:34.333Z,14.50
2019-03-18T04:27:02.734Z,14.73
2019-03-18T04:29:31.313Z,14.60
2019-03-18T04:31:59.723Z,14.73
2019-03-18T04:34:28.113Z,14.43
2019-03-18T04:36:56.866Z,14.77
2019-03-18T04:39:25.278Z,15.73
2019-03-18T04:41:53.763Z,17.13
2019-03-18T04:44:22.148Z,16.10
2019-03-18T04:46:50.663Z,15.63
2019-03-18T04:49:19.052Z,15.90
2019-03-18T04:51:47.586Z,17.00
2019-03-18T04:54:16.212Z,18.00
2019-03-18T04:56:44.903Z,16.10
2019-03-18T04:59:13.580Z,16.73
2019-03-18T05:01:41.978Z,17.20
2019-03-18T05:04:10.651Z,16.67
2019-03-18T05:06:39.444Z,16.67
2019-03-18T05:09:07.840Z,17.07
2019-03-18T05:11:36.232Z,16.47
2019-03-18T05:14:04.810Z,16.70
2019-03-18T05:16:33.223Z,16.67
2019-03-18T05:19:01.646Z,17.00
2019-03-18T05:21:30.030Z,17.43
2019-03-18T05:23:58.708Z,16.00
2019-03-18T05:26:27.186Z,17.10
2019-03-18T05:28:55.645Z,18.00
2019-03-18T05:31:24.356Z,16.20
2019-03-18T05:33:52.753Z,16.57
2019-03-18T05:36:21.420Z,18.23
2019-03-18T05:38:49.942Z,17.53
2019-03-18T05:41:18.288Z,17.43
2019-03-18T05:43:47.195Z,18.30
2019-03-18T05:46:15.593Z,18.97
2019-03-18T05:48:44.238Z,17.97
2019-03-18T05:51:12.693Z,18.87
2019-03-18T05:53:41.445Z,17.43
2019-03-18T05:56:09.829Z,17.80
2019-03-18T05:58:38.212Z,18.03
2019-03-18T06:01:06.886Z,16.03
2019-03-18T06:03:35.261Z,16.50
2019-03-18T06:06:03.671Z,17.93
2019-03-18T06:08:32.072Z,17.27
2019-03-18T06:11:00.877Z,18.10
2019-03-18T06:13:29.675Z,16.77
2019-03-18T06:15:58.155Z,16.87
2019-03-18T06:18:26.549Z,18.27
2019-03-18T06:20:54.950Z,17.10
2019-03-18T06:23:23.715Z,18.13
2019-03-18T06:25:52.106Z,17.80
2019-03-18T06:28:20.781Z,18.97
2019-03-18T06:30:49.180Z,19.30
2019-03-18T06:33:17.823Z,19.17
2019-03-18T06:35:46.319Z,19.17
2019-03-18T06:38:14.800Z,22.87
2019-03-18T06:40:43.472Z,19.87
2019-03-18T06:43:11.935Z,19.70
2019-03-18T06:45:40.332Z,19.10
2019-03-18T06:48:09.264Z,19.63
2019-03-18T06:50:38.108Z,18.40
2019-03-18T06:53:06.721Z,18.80
2019-03-18T06:55:35.104Z,18.43
2019-03-18T06:58:03.561Z,19.03
2019-03-18T07:00:31.972Z,20.00
2019-03-18T07:03:00.387Z,18.77
2019-03-18T07:05:28.786Z,19.97
2019-03-18T07:07:57.897Z,18.83
2019-03-18T07:10:26.282Z,17.60
2019-03-18T07:12:54.774Z,18.20
2019-03-18T07:15:23.171Z,18.23
2019-03-18T07:17:52.018Z,18.23
2019-03-18T07:20:20.421Z,17.13
2019-03-18T07:22:49.085Z,18.83
2019-03-18T07:25:17.484Z,17.37
2019-03-18T07:27:46.284Z,18.07
2019-03-18T07:30:15.234Z,18.50
2019-03-18T07:32:43.936Z,18.33
2019-03-18T07:35:12.450Z,19.70
2019-03-18T07:37:41.209Z,17.80
2019-03-18T07:40:14.125Z,18.00
2019-03-18T07:42:42.981Z,18.10
2019-03-18T07:45:15.648Z,16.70
2019-03-18T07:47:42.894Z,17.17
2019-03-18T07:50:13.065Z,18.07
2019-03-18T07:52:41.816Z,19.00
2019-03-18T07:55:10.541Z,16.43
2019-03-18T07:57:39.406Z,17.37
2019-03-18T08:00:16.009Z,17.73
2019-03-18T08:02:44.469Z,16.90
2019-03-18T08:05:13.001Z,16.53
2019-03-18T08:07:41.446Z,17.17
2019-03-18T08:10:12.040Z,18.83
2019-03-18T08:12:40.454Z,17.83
2019-03-18T08:15:10.283Z,18.20
2019-03-18T08:17:38.672Z,17.83
2019-03-18T08:20:12.232Z,16.97
2019-03-18T08:22:40.697Z,16.57
2019-03-18T08:25:09.951Z,16.80
2019-03-18T08:27:38.368Z,17.70
2019-03-18T08:30:12.242Z,18.20
2019-03-18T08:32:40.869Z,21.10
2019-03-18T08:35:09.586Z,16.10
2019-03-18T08:37:38.057Z,15.30
2019-03-18T08:40:09.008Z,16.60
2019-03-18T08:42:37.394Z,16.40
2019-03-18T08:45:08.595Z,17.30
2019-03-18T08:47:37.699Z,16.20
2019-03-18T08:50:11.919Z,22.30
2019-03-18T08:52:38.871Z,16.30
2019-03-18T08:55:09.105Z,21.40
2019-03-18T08:57:37.969Z,15.83
2019-03-18T09:00:12.097Z,17.93
2019-03-18T09:02:40.487Z,16.30
2019-03-18T09:05:10.275Z,14.50
2019-03-18T09:07:38.786Z,15.33
2019-03-18T09:10:10.826Z,15.30
2019-03-18T09:12:39.466Z,13.63
2019-03-18T09:15:10.123Z,16.57
2019-03-18T09:17:38.607Z,17.23
2019-03-18T09:20:17.867Z,12.93
2019-03-18T09:22:46.258Z,14.57
2019-03-18T09:25:14.709Z,13.77
2019-03-18T09:27:43.327Z,11.80
2019-03-18T09:30:16.618Z,15.30
2019-03-18T09:32:45.010Z,14.13
2019-03-18T09:35:13.395Z,14.57
2019-03-18T09:37:41.830Z,16.23
2019-03-18T09:40:12.216Z,11.33
2019-03-18T09:42:40.840Z,10.67
2019-03-18T09:45:14.953Z,13.53
2019-03-18T09:47:43.364Z,15.13
2019-03-18T09:50:12.611Z,9.97
2019-03-18T09:52:41.328Z,12.70
2019-03-18T09:55:11.544Z,13.00
2019-03-18T09:57:39.939Z,11.10
2019-03-18T10:00:12.427Z,9.90
2019-03-18T10:02:41.032Z,9.57
2019-03-18T10:05:09.929Z,10.20
2019-03-18T10:07:38.659Z,15.30
2019-03-18T10:10:09.444Z,9.07
2019-03-18T10:12:37.842Z,15.27
2019-03-18T10:15:11.650Z,13.00
2019-03-18T10:17:40.040Z,19.17
2019-03-18T10:20:09.690Z,12.63
2019-03-18T10:22:38.071Z,11.40
2019-03-18T10:25:07.933Z,13.80
2019-03-18T10:27:37.643Z,19.40
2019-03-18T10:30:11.832Z,12.93
2019-03-18T10:32:40.207Z,10.10
2019-03-18T10:35:09.327Z,12.13
2019-03-18T10:37:37.721Z,11.43
2019-03-18T10:40:09.188Z,10.00
2019-03-18T10:42:37.566Z,9.60
2019-03-18T10:45:08.586Z,11.70
2019-03-18T10:47:37.231Z,8.57
2019-03-18T10:50:08.819Z,11.00
2019-03-18T10:52:37.223Z,11.13
2019-03-18T10:55:07.683Z,10.20
2019-03-18T10:57:36.047Z,11.70
2019-03-18T11:00:07.653Z,10.87
2019-03-18T11:02:36.266Z,9.43
2019-03-18T11:05:08.008Z,11.43
2019-03-18T11:07:35.890Z,11.67
2019-03-18T11:10:07.420Z,8.17
2019-03-18T11:12:35.855Z,13.63
2019-03-18T11:15:06.574Z,8.70
2019-03-18T11:17:35.204Z,13.50
2019-03-18T11:20:05.499Z,13.03
2019-03-18T11:22:33.893Z,12.00
2019-03-18T11:25:02.307Z,14.20
2019-03-18T11:27:31.027Z,12.23
2019-03-18T11:29:59.525Z,8.60
2019-03-18T11:32:27.918Z,8.80
2019-03-18T11:34:56.304Z,10.10
2019-03-18T11:37:24.683Z,10.63
2019-03-18T11:39:53.328Z,9.07
2019-03-18T11:42:22.021Z,10.90
2019-03-18T11:44:50.412Z,9.30
2019-03-18T11:47:18.867Z,10.50
2019-03-18T11:49:47.375Z,12.10
2019-03-18T11:52:15.763Z,12.70
2019-03-18T11:54:44.153Z,10.50
2019-03-18T11:57:12.550Z,9.50
2019-03-18T11:59:40.951Z,11.50
2019-03-18T12:02:09.408Z,12.03
2019-03-18T12:04:37.801Z,12.03
2019-03-18T12:07:06.547Z,11.10
2019-03-18T12:09:35.038Z,11.50
2019-03-18T12:12:03.506Z,9.80
2019-03-18T12:14:31.945Z,9.67
2019-03-18T12:17:00.414Z,8.80
2019-03-18T12:19:29.134Z,9.30
2019-03-18T12:21:57.516Z,9.40
2019-03-18T12:24:26.129Z,10.70
2019-03-18T12:26:54.784Z,9.50
2019-03-18T12:29:23.475Z,9.53
2019-03-18T12:31:51.866Z,9.30
2019-03-18T12:34:20.613Z,10.60
2019-03-18T12:36:48.985Z,9.80
2019-03-18T12:39:17.368Z,14.13
2019-03-18T12:41:45.766Z,10.90
2019-03-18T12:44:14.151Z,11.03
2019-03-18T12:46:42.606Z,12.40
2019-03-18T12:49:10.998Z,11.13
2019-03-18T12:51:39.416Z,8.47
2019-03-18T12:54:07.886Z,9.10
2019-03-18T12:56:36.377Z,10.70
2019-03-18T12:59:04.862Z,13.47
2019-03-18T13:01:33.337Z,11.93
2019-03-18T13:04:02.206Z,8.60
2019-03-18T13:06:33.375Z,9.73
2019-03-18T13:09:00.707Z,8.13
2019-03-18T13:11:29.095Z,15.60
2019-03-18T13:13:57.783Z,9.23
2019-03-18T13:16:26.184Z,8.37
2019-03-18T13:18:54.834Z,8.97
2019-03-18T13:21:23.214Z,8.90
2019-03-18T13:23:51.729Z,13.27
2019-03-18T13:26:20.179Z,8.53
2019-03-18T13:28:48.870Z,11.23
2019-03-18T13:31:17.548Z,8.93
2019-03-18T13:33:45.947Z,8.87
2019-03-18T13:36:15.540Z,10.77
2019-03-18T13:38:43.934Z,11.50
2019-03-18T13:41:12.338Z,10.37
2019-03-18T13:43:40.979Z,9.77
2019-03-18T13:46:09.486Z,7.83
2019-03-18T13:48:37.879Z,12.90
2019-03-18T13:51:06.256Z,7.80
2019-03-18T13:53:34.640Z,7.60
2019-03-18T13:56:03.346Z,13.33
2019-03-18T13:58:31.735Z,8.23
2019-03-18T14:01:00.117Z,16.00
2019-03-18T14:03:28.516Z,12.23
2019-03-18T14:05:57.215Z,10.20
2019-03-18T14:08:25.592Z,9.13
2019-03-18T14:10:53.981Z,9.67
2019-03-18T14:13:22.359Z,8.80
2019-03-18T14:15:50.739Z,8.93
2019-03-18T14:18:19.300Z,9.03
2019-03-18T14:20:47.809Z,8.93
2019-03-18T14:23:16.306Z,10.93
2019-03-18T14:25:45.596Z,8.83
2019-03-18T14:28:16.305Z,7.77
2019-03-18T14:30:44.680Z,12.13
2019-03-18T14:33:13.377Z,7.50
2019-03-18T14:35:42.060Z,8.97
2019-03-18T14:38:10.455Z,7.70
2019-03-18T14:40:38.842Z,8.13
2019-03-18T14:43:07.233Z,6.97
2019-03-18T14:45:35.684Z,6.97
2019-03-18T14:48:04.241Z,8.17
2019-03-18T14:50:32.945Z,8.20
2019-03-18T14:53:01.603Z,14.43
2019-03-18T14:55:29.988Z,9.70
2019-03-18T14:57:58.367Z,8.43
2019-03-18T15:00:28.198Z,8.10
2019-03-18T15:02:56.584Z,11.57
2019-03-18T15:05:25.506Z,11.10
2019-03-18T15:07:53.967Z,8.77
2019-03-18T15:10:24.274Z,8.03
2019-03-18T15:12:52.684Z,14.90
2019-03-18T15:15:21.216Z,9.63
2019-03-18T15:17:49.689Z,8.50
2019-03-18T15:20:20.729Z,8.37
2019-03-18T15:22:49.154Z,8.60
2019-03-18T15:25:22.354Z,8.43
2019-03-18T15:27:50.827Z,7.90
2019-03-18T15:30:21.108Z,8.83
2019-03-18T15:32:49.908Z,12.53
2019-03-18T15:35:18.567Z,9.13
2019-03-18T15:37:46.964Z,10.23
2019-03-18T15:40:25.326Z,9.27
2019-03-18T15:42:53.738Z,10.40
2019-03-18T15:45:22.926Z,9.23
2019-03-18T15:47:51.460Z,13.80
2019-03-18T15:50:21.403Z,9.27
2019-03-18T15:52:49.856Z,8.13
2019-03-18T15:55:18.260Z,8.10
2019-03-18T15:57:46.766Z,11.33
2019-03-18T16:00:23.331Z,8.33
2019-03-18T16:02:51.705Z,11.53
2019-03-18T16:05:20.256Z,8.10
2019-03-18T16:07:48.633Z,9.30
2019-03-18T16:10:18.404Z,9.77
2019-03-18T16:12:47.137Z,9.47
2019-03-18T16:15:16.676Z,12.27
2019-03-18T16:17:45.047Z,8.73
2019-03-18T16:20:18.930Z,7.67
2019-03-18T16:22:47.314Z,8.50
2019-03-18T16:25:16.233Z,13.93
2019-03-18T16:27:44.626Z,14.37
2019-03-18T16:30:18.810Z,9.23
2019-03-18T16:32:47.514Z,9.30
2019-03-18T16:35:16.993Z,10.70
2019-03-18T16:37:45.443Z,8.40
2019-03-18T16:40:21.067Z,9.00
2019-03-18T16:42:49.443Z,13.43
2019-03-18T16:45:19.139Z,9.93
2019-03-18T16:47:47.895Z,7.67
2019-03-18T16:50:18.354Z,6.90
2019-03-18T16:52:47.013Z,10.10
2019-03-18T16:55:15.998Z,10.80
2019-03-18T16:57:44.384Z,7.20
2019-03-18T17:00:15.490Z,14.60
2019-03-18T17:02:44.116Z,6.30
2019-03-18T17:05:12.796Z,8.00
2019-03-18T17:07:41.481Z,11.57
2019-03-18T17:10:14.101Z,8.03
2019-03-18T17:12:43.155Z,6.67
2019-03-18T17:15:13.915Z,9.23
2019-03-18T17:17:42.365Z,7.10
2019-03-18T17:20:13.347Z,10.47
2019-03-18T17:22:48.652Z,11.50
2019-03-18T17:25:27.680Z,8.40
2019-03-18T17:27:56.071Z,9.07
2019-03-18T17:30:26.640Z,10.17
2019-03-18T17:32:54.671Z,13.10
2019-03-18T17:35:23.168Z,7.80
2019-03-18T17:37:52.033Z,11.67
2019-03-18T17:40:21.186Z,8.73
2019-03-18T17:42:49.566Z,11.23
2019-03-18T17:45:20.776Z,12.77
2019-03-18T17:47:49.165Z,11.80
2019-03-18T17:50:20.146Z,11.30
2019-03-18T17:53:00.839Z,12.10
2019-03-18T17:55:18.812Z,12.93
2019-03-18T17:57:47.506Z,9.30
2019-03-18T18:00:21.478Z,7.67
2019-03-18T18:02:52.603Z,12.10
2019-03-18T18:05:20.414Z,12.10
2019-03-18T18:07:48.793Z,14.40
2019-03-18T18:10:17.182Z,13.13
2019-03-18T18:12:45.747Z,12.40
2019-03-18T18:15:14.222Z,13.47
2019-03-18T18:17:42.599Z,10.80
2019-03-18T18:20:15.248Z,18.37
2019-03-18T18:22:43.668Z,15.27
2019-03-18T18:25:13.036Z,12.43
2019-03-18T18:27:41.538Z,20.70
2019-03-18T18:30:15.638Z,11.40
2019-03-18T18:32:44.320Z,10.17
2019-03-18T18:35:13.548Z,12.13
2019-03-18T18:37:42.127Z,14.63
2019-03-18T18:40:13.607Z,12.57
2019-03-18T18:42:42.000Z,13.70
2019-03-18T18:45:12.235Z,11.70
2019-03-18T18:47:40.709Z,11.00
2019-03-18T18:50:13.011Z,20.37
2019-03-18T18:52:41.443Z,14.73
2019-03-18T18:55:12.027Z,12.00
2019-03-18T18:57:40.522Z,14.60
2019-03-18T19:00:19.803Z,13.37
2019-03-18T19:02:48.354Z,15.53
2019-03-18T19:05:18.422Z,11.33
2019-03-18T19:07:46.918Z,11.53
2019-03-18T19:10:17.495Z,13.33
2019-03-18T19:12:45.959Z,10.17
2019-03-18T19:15:25.995Z,12.83
2019-03-18T19:17:54.503Z,11.23
2019-03-18T19:20:23.197Z,9.87
2019-03-18T19:22:51.638Z,13.03
2019-03-18T19:25:20.113Z,15.07
2019-03-18T19:27:48.602Z,12.43
2019-03-18T19:30:24.162Z,9.40
2019-03-18T19:32:52.688Z,10.23
2019-03-18T19:35:21.260Z,13.40
2019-03-18T19:37:50.227Z,13.43
2019-03-18T19:40:23.139Z,11.70
2019-03-18T19:42:51.669Z,11.03
2019-03-18T19:45:20.116Z,11.93
2019-03-18T19:47:48.509Z,11.90
2019-03-18T19:50:21.456Z,11.20
2019-03-18T19:52:49.882Z,13.53
2019-03-18T19:55:18.425Z,13.70
2019-03-18T19:57:46.853Z,10.40
2019-03-18T20:00:18.034Z,12.90
2019-03-18T20:02:46.380Z,16.93
2019-03-18T20:05:16.526Z,15.20
2019-03-18T20:07:45.217Z,20.97
2019-03-18T20:10:18.012Z,16.77
2019-03-18T20:12:46.460Z,15.47
2019-03-18T20:15:18.797Z,12.80
2019-03-18T20:17:47.409Z,13.57
2019-03-18T20:20:20.045Z,10.83
2019-03-18T20:22:48.443Z,12.27
2019-03-18T20:25:16.833Z,17.73
2019-03-18T20:27:45.688Z,20.87
2019-03-18T20:30:22.169Z,11.73
2019-03-18T20:32:51.068Z,11.37
2019-03-18T20:35:24.654Z,16.53
2019-03-18T20:37:53.190Z,14.03
2019-03-18T20:40:22.043Z,15.00
2019-03-18T20:42:51.216Z,14.20
2019-03-18T20:45:20.942Z,19.10
2019-03-18T20:47:49.687Z,15.90
2019-03-18T20:50:19.200Z,14.83
2019-03-18T20:52:47.785Z,16.50
2019-03-18T20:55:16.860Z,16.00
2019-03-18T20:57:45.255Z,13.60
2019-03-18T21:00:17.999Z,16.93
2019-03-18T21:02:46.433Z,16.17
2019-03-18T21:05:15.069Z,19.87
2019-03-18T21:07:43.568Z,14.73
2019-03-18T21:10:16.629Z,23.40
2019-03-18T21:12:44.977Z,20.50
2019-03-18T21:15:17.681Z,19.13
2019-03-18T21:17:46.403Z,18.60
2019-03-18T21:20:30.143Z,14.30
2019-03-18T21:22:58.545Z,17.07
2019-03-18T21:25:26.922Z,17.17
2019-03-18T21:27:55.412Z,14.20
2019-03-18T21:30:24.503Z,15.63
2019-03-18T21:32:52.933Z,13.07
2019-03-18T21:35:21.283Z,16.93
2019-03-18T21:37:52.103Z,14.37
2019-03-18T21:40:23.435Z,13.53
2019-03-18T21:42:52.110Z,15.03
2019-03-18T21:45:24.398Z,19.63
2019-03-18T21:47:52.869Z,13.40
2019-03-18T21:50:21.346Z,13.73
2019-03-18T21:52:49.748Z,21.43
2019-03-18T21:55:18.205Z,14.13
2019-03-18T21:57:46.616Z,18.87
2019-03-18T22:00:20.091Z,16.30
2019-03-18T22:02:48.654Z,15.50
2019-03-18T22:05:17.124Z,12.77
2019-03-18T22:07:45.549Z,14.00
2019-03-18T22:10:16.166Z,17.37
2019-03-18T22:12:44.549Z,16.00
2019-03-18T22:15:14.653Z,15.63
2019-03-18T22:17:43.236Z,15.60
2019-03-18T22:20:14.229Z,15.33
2019-03-18T22:22:42.617Z,15.57
2019-03-18T22:25:12.665Z,14.53
2019-03-18T22:27:41.621Z,13.20
2019-03-18T22:30:20.535Z,13.87
2019-03-18T22:32:49.346Z,14.20
2019-03-18T22:35:17.734Z,17.30
2019-03-18T22:37:46.139Z,14.20
2019-03-18T22:40:18.320Z,16.30
2019-03-18T22:42:47.411Z,13.60
2019-03-18T22:45:16.673Z,16.43
2019-03-18T22:47:45.086Z,13.80
2019-03-18T22:50:20.774Z,15.10
2019-03-18T22:52:49.164Z,15.20
2019-03-18T22:55:17.561Z,14.10
2019-03-18T22:57:45.975Z,14.67
2019-03-18T23:00:23.250Z,18.47
2019-03-18T23:02:52.289Z,15.03
2019-03-18T23:05:20.755Z,19.10
2019-03-18T23:07:49.140Z,14.37
2019-03-18T23:10:17.903Z,17.87
2019-03-18T23:12:46.306Z,18.63
2019-03-18T23:15:14.750Z,17.30
2019-03-18T23:17:43.161Z,14.27
2019-03-18T23:20:11.935Z,14.67
2019-03-18T23:22:40.395Z,14.83
2019-03-18T23:25:08.978Z,13.83
2019-03-18T23:27:37.368Z,14.10
2019-03-18T23:30:11.710Z,15.80
2019-03-18T23:32:40.113Z,13.80
2019-03-18T23:35:08.669Z,14.13
2019-03-18T23:37:37.342Z,18.93
2019-03-18T23:40:11.586Z,19.77
2019-03-18T23:42:39.983Z,18.73
2019-03-18T23:45:09.848Z,15.80
2019-03-18T23:47:38.334Z,16.17
2019-03-18T23:50:14.906Z,13.83
2019-03-18T23:52:43.290Z,17.50
2019-03-18T23:55:19.080Z,13.93
2019-03-18T23:57:42.550Z,12.87
